sensor_id;sensor_type;location;lat;lon;timestamp;pressure;altitude;pressure_sealevel;temperature;humidity
48790;BME280;41718;51.980;5.734;2024-03-02T00:03:36;99760.81;;;7.92;nan
48790;BME280;41718;51.980;5.734;2024-03-02T00:08:59;99763.63;;;8.00;nan
48790;BME280;41718;51.980;5.734;2024-03-02T00:14:05;99762.47;;;7.93;nan
48790;BME280;41718;51.980;5.734;2024-03-02T00:19:11;99757.53;;;7.99;nan
48790;BME280;41718;51.980;5.734;2024-03-02T00:24:34;99770.81;;;7.98;nan
48790;BME280;41718;51.980;5.734;2024-03-02T00:29:37;99778.56;;;7.99;nan
48790;BME280;41718;51.980;5.734;2024-03-02T00:34:39;99779.78;;;7.95;nan
48790;BME280;41718;51.980;5.734;2024-03-02T00:39:41;99779.25;;;8.01;nan
48790;BME280;41718;51.980;5.734;2024-03-02T00:44:43;99792.44;;;7.90;nan
48790;BME280;41718;51.980;5.734;2024-03-02T00:49:47;99795.38;;;7.97;nan
48790;BME280;41718;51.980;5.734;2024-03-02T00:54:49;99796.94;;;7.99;nan
48790;BME280;41718;51.980;5.734;2024-03-02T00:59:52;99838.88;;;7.90;nan
48790;BME280;41718;51.980;5.734;2024-03-02T01:04:54;99864.38;;;7.99;nan
48790;BME280;41718;51.980;5.734;2024-03-02T01:09:56;99873.84;;;8.11;nan
48790;BME280;41718;51.980;5.734;2024-03-02T01:14:58;99878.84;;;7.93;nan
48790;BME280;41718;51.980;5.734;2024-03-02T01:20:00;99878.16;;;7.80;nan
48790;BME280;41718;51.980;5.734;2024-03-02T01:25:02;99872.22;;;7.78;nan
48790;BME280;41718;51.980;5.734;2024-03-02T01:30:05;99885.34;;;7.78;nan
48790;BME280;41718;51.980;5.734;2024-03-02T01:35:08;99882.88;;;7.66;nan
48790;BME280;41718;51.980;5.734;2024-03-02T01:40:11;99864.19;;;7.59;nan
48790;BME280;41718;51.980;5.734;2024-03-02T01:45:13;99864.09;;;7.50;nan
48790;BME280;41718;51.980;5.734;2024-03-02T01:50:15;99871.88;;;7.40;nan
48790;BME280;41718;51.980;5.734;2024-03-02T01:55:18;99855.78;;;7.33;nan
48790;BME280;41718;51.980;5.734;2024-03-02T02:00:21;99851.88;;;7.28;nan
48790;BME280;41718;51.980;5.734;2024-03-02T02:05:23;99872.28;;;7.24;nan
48790;BME280;41718;51.980;5.734;2024-03-02T02:10:26;99864.50;;;7.23;nan
48790;BME280;41718;51.980;5.734;2024-03-02T02:15:29;99859.63;;;7.18;nan
48790;BME280;41718;51.980;5.734;2024-03-02T02:20:31;99858.19;;;7.14;nan
48790;BME280;41718;51.980;5.734;2024-03-02T02:25:33;99853.09;;;7.13;nan
48790;BME280;41718;51.980;5.734;2024-03-02T02:30:36;99851.44;;;7.12;nan
48790;BME280;41718;51.980;5.734;2024-03-02T02:35:38;99861.78;;;7.13;nan
48790;BME280;41718;51.980;5.734;2024-03-02T02:40:40;99872.50;;;7.10;nan
48790;BME280;41718;51.980;5.734;2024-03-02T02:45:43;99863.94;;;7.08;nan
48790;BME280;41718;51.980;5.734;2024-03-02T02:50:45;99859.66;;;6.96;nan
48790;BME280;41718;51.980;5.734;2024-03-02T02:55:46;99859.44;;;6.88;nan
48790;BME280;41718;51.980;5.734;2024-03-02T03:00:49;99865.16;;;6.93;nan
48790;BME280;41718;51.980;5.734;2024-03-02T03:05:51;99866.59;;;6.86;nan
48790;BME280;41718;51.980;5.734;2024-03-02T03:10:53;99864.09;;;6.74;nan
48790;BME280;41718;51.980;5.734;2024-03-02T03:15:56;99859.94;;;6.71;nan
48790;BME280;41718;51.980;5.734;2024-03-02T03:20:58;99866.59;;;6.64;nan
48790;BME280;41718;51.980;5.734;2024-03-02T03:26:00;99877.06;;;6.64;nan
48790;BME280;41718;51.980;5.734;2024-03-02T03:31:02;99883.25;;;6.63;nan
48790;BME280;41718;51.980;5.734;2024-03-02T03:36:05;99887.19;;;6.57;nan
48790;BME280;41718;51.980;5.734;2024-03-02T03:41:07;99886.25;;;6.58;nan
48790;BME280;41718;51.980;5.734;2024-03-02T03:46:09;99888.97;;;6.57;nan
48790;BME280;41718;51.980;5.734;2024-03-02T03:51:11;99892.44;;;6.57;nan
48790;BME280;41718;51.980;5.734;2024-03-02T03:56:13;99889.22;;;6.54;nan
48790;BME280;41718;51.980;5.734;2024-03-02T04:01:15;99883.00;;;6.44;nan
48790;BME280;41718;51.980;5.734;2024-03-02T04:06:18;99891.09;;;6.41;nan
48790;BME280;41718;51.980;5.734;2024-03-02T04:11:20;99906.69;;;6.42;nan
48790;BME280;41718;51.980;5.734;2024-03-02T04:16:22;99895.84;;;6.47;nan
48790;BME280;41718;51.980;5.734;2024-03-02T04:21:24;99893.88;;;6.50;nan
48790;BME280;41718;51.980;5.734;2024-03-02T04:26:27;99891.13;;;6.52;nan
48790;BME280;41718;51.980;5.734;2024-03-02T04:31:29;99903.16;;;6.54;nan
48790;BME280;41718;51.980;5.734;2024-03-02T04:36:31;99900.75;;;6.51;nan
48790;BME280;41718;51.980;5.734;2024-03-02T04:41:33;99911.19;;;6.40;nan
48790;BME280;41718;51.980;5.734;2024-03-02T04:46:35;99911.56;;;6.47;nan
48790;BME280;41718;51.980;5.734;2024-03-02T04:51:37;99907.66;;;6.41;nan
48790;BME280;41718;51.980;5.734;2024-03-02T04:56:39;99903.00;;;6.45;nan
48790;BME280;41718;51.980;5.734;2024-03-02T05:01:46;99910.38;;;6.51;nan
48790;BME280;41718;51.980;5.734;2024-03-02T05:06:49;99924.47;;;6.50;nan
48790;BME280;41718;51.980;5.734;2024-03-02T05:11:55;99932.41;;;6.37;nan
48790;BME280;41718;51.980;5.734;2024-03-02T05:17:31;99941.78;;;6.29;nan
48790;BME280;41718;51.980;5.734;2024-03-02T05:22:34;99940.91;;;6.17;nan
48790;BME280;41718;51.980;5.734;2024-03-02T05:27:36;99942.47;;;6.20;nan
48790;BME280;41718;51.980;5.734;2024-03-02T05:32:38;99950.03;;;6.12;nan
48790;BME280;41718;51.980;5.734;2024-03-02T05:37:40;99955.72;;;6.06;nan
48790;BME280;41718;51.980;5.734;2024-03-02T05:42:42;99957.03;;;6.00;nan
48790;BME280;41718;51.980;5.734;2024-03-02T05:47:45;99950.72;;;6.03;nan
48790;BME280;41718;51.980;5.734;2024-03-02T05:52:47;99961.69;;;6.08;nan
48790;BME280;41718;51.980;5.734;2024-03-02T05:57:49;99953.38;;;6.14;nan
48790;BME280;41718;51.980;5.734;2024-03-02T06:03:09;99960.94;;;6.29;nan
48790;BME280;41718;51.980;5.734;2024-03-02T06:08:11;99964.41;;;6.30;nan
48790;BME280;41718;51.980;5.734;2024-03-02T06:13:13;99974.03;;;6.29;nan
48790;BME280;41718;51.980;5.734;2024-03-02T06:18:15;99969.81;;;6.16;nan
48790;BME280;41718;51.980;5.734;2024-03-02T06:23:17;99976.41;;;6.21;nan
48790;BME280;41718;51.980;5.734;2024-03-02T06:28:20;99975.03;;;6.16;nan
48790;BME280;41718;51.980;5.734;2024-03-02T06:33:22;99982.09;;;6.15;nan
48790;BME280;41718;51.980;5.734;2024-03-02T06:38:24;99990.94;;;6.25;nan
48790;BME280;41718;51.980;5.734;2024-03-02T06:43:26;99981.06;;;6.29;nan
48790;BME280;41718;51.980;5.734;2024-03-02T06:48:28;99997.38;;;6.32;nan
48790;BME280;41718;51.980;5.734;2024-03-02T06:53:32;99993.31;;;6.28;nan
48790;BME280;41718;51.980;5.734;2024-03-02T06:58:35;99993.28;;;6.17;nan
48790;BME280;41718;51.980;5.734;2024-03-02T07:03:37;99997.41;;;6.09;nan
48790;BME280;41718;51.980;5.734;2024-03-02T07:08:41;100007.72;;;5.99;nan
48790;BME280;41718;51.980;5.734;2024-03-02T07:13:43;100005.09;;;5.99;nan
48790;BME280;41718;51.980;5.734;2024-03-02T07:18:45;100012.06;;;6.11;nan
48790;BME280;41718;51.980;5.734;2024-03-02T07:23:53;100012.88;;;6.12;nan
48790;BME280;41718;51.980;5.734;2024-03-02T07:28:55;100028.69;;;6.10;nan
48790;BME280;41718;51.980;5.734;2024-03-02T07:33:57;100020.72;;;6.12;nan
48790;BME280;41718;51.980;5.734;2024-03-02T07:38:59;100028.53;;;6.24;nan
48790;BME280;41718;51.980;5.734;2024-03-02T07:44:01;100022.97;;;6.29;nan
48790;BME280;41718;51.980;5.734;2024-03-02T07:49:03;100030.16;;;6.49;nan
48790;BME280;41718;51.980;5.734;2024-03-02T07:54:05;100047.13;;;6.67;nan
48790;BME280;41718;51.980;5.734;2024-03-02T07:59:07;100031.97;;;6.83;nan
48790;BME280;41718;51.980;5.734;2024-03-02T08:04:10;100031.50;;;7.00;nan
48790;BME280;41718;51.980;5.734;2024-03-02T08:09:12;100034.28;;;7.21;nan
48790;BME280;41718;51.980;5.734;2024-03-02T08:14:15;100036.78;;;7.33;nan
48790;BME280;41718;51.980;5.734;2024-03-02T08:19:17;100045.38;;;7.35;nan
48790;BME280;41718;51.980;5.734;2024-03-02T08:24:19;100049.91;;;7.44;nan
48790;BME280;41718;51.980;5.734;2024-03-02T08:29:21;100049.66;;;7.47;nan
48790;BME280;41718;51.980;5.734;2024-03-02T08:34:23;100058.38;;;7.48;nan
48790;BME280;41718;51.980;5.734;2024-03-02T08:39:25;100051.34;;;7.49;nan
48790;BME280;41718;51.980;5.734;2024-03-02T08:44:28;100052.41;;;7.46;nan
48790;BME280;41718;51.980;5.734;2024-03-02T08:49:30;100057.53;;;7.47;nan
48790;BME280;41718;51.980;5.734;2024-03-02T08:54:32;100059.22;;;7.49;nan
48790;BME280;41718;51.980;5.734;2024-03-02T08:59:35;100072.06;;;7.52;nan
48790;BME280;41718;51.980;5.734;2024-03-02T09:04:37;100075.56;;;7.63;nan
48790;BME280;41718;51.980;5.734;2024-03-02T09:09:39;100068.00;;;7.70;nan
48790;BME280;41718;51.980;5.734;2024-03-02T09:14:42;100061.34;;;7.77;nan
48790;BME280;41718;51.980;5.734;2024-03-02T09:19:44;100072.66;;;7.88;nan
48790;BME280;41718;51.980;5.734;2024-03-02T09:24:46;100072.53;;;8.01;nan
48790;BME280;41718;51.980;5.734;2024-03-02T09:29:48;100084.66;;;8.13;nan
48790;BME280;41718;51.980;5.734;2024-03-02T09:34:50;100075.72;;;8.27;nan
48790;BME280;41718;51.980;5.734;2024-03-02T09:39:52;100060.75;;;8.38;nan
48790;BME280;41718;51.980;5.734;2024-03-02T09:44:54;100058.00;;;8.40;nan
48790;BME280;41718;51.980;5.734;2024-03-02T09:49:59;100052.59;;;8.73;nan
48790;BME280;41718;51.980;5.734;2024-03-02T09:55:02;100058.25;;;8.89;nan
48790;BME280;41718;51.980;5.734;2024-03-02T10:00:05;100065.25;;;8.99;nan
48790;BME280;41718;51.980;5.734;2024-03-02T10:05:11;100073.00;;;9.01;nan
48790;BME280;41718;51.980;5.734;2024-03-02T10:10:15;100077.03;;;9.26;nan
48790;BME280;41718;51.980;5.734;2024-03-02T10:15:24;100066.13;;;9.30;nan
48790;BME280;41718;51.980;5.734;2024-03-02T10:20:27;100063.47;;;9.51;nan
48790;BME280;41718;51.980;5.734;2024-03-02T10:25:34;100066.72;;;9.64;nan
48790;BME280;41718;51.980;5.734;2024-03-02T10:30:48;100059.19;;;9.50;nan
48790;BME280;41718;51.980;5.734;2024-03-02T10:35:52;100048.22;;;9.84;nan
48790;BME280;41718;51.980;5.734;2024-03-02T10:40:53;100043.88;;;10.23;nan
48790;BME280;41718;51.980;5.734;2024-03-02T10:45:58;100034.63;;;10.38;nan
48790;BME280;41718;51.980;5.734;2024-03-02T10:51:00;100021.97;;;10.51;nan
48790;BME280;41718;51.980;5.734;2024-03-02T10:56:07;100029.31;;;10.86;nan
48790;BME280;41718;51.980;5.734;2024-03-02T11:01:12;100028.59;;;11.03;nan
48790;BME280;41718;51.980;5.734;2024-03-02T11:06:15;100013.28;;;11.16;nan
48790;BME280;41718;51.980;5.734;2024-03-02T11:11:23;100025.81;;;11.41;nan
48790;BME280;41718;51.980;5.734;2024-03-02T11:16:35;100013.72;;;11.48;nan
48790;BME280;41718;51.980;5.734;2024-03-02T11:21:38;100020.38;;;11.52;nan
48790;BME280;41718;51.980;5.734;2024-03-02T11:26:42;100026.97;;;11.76;nan
48790;BME280;41718;51.980;5.734;2024-03-02T11:31:59;100021.19;;;11.90;nan
48790;BME280;41718;51.980;5.734;2024-03-02T11:37:04;100016.56;;;12.19;nan
48790;BME280;41718;51.980;5.734;2024-03-02T11:42:07;100009.00;;;12.42;nan
48790;BME280;41718;51.980;5.734;2024-03-02T11:47:16;99995.41;;;12.19;nan
48790;BME280;41718;51.980;5.734;2024-03-02T11:52:19;100004.66;;;12.58;nan
48790;BME280;41718;51.980;5.734;2024-03-02T11:57:22;99986.56;;;12.46;nan
48790;BME280;41718;51.980;5.734;2024-03-02T12:02:24;99994.00;;;12.50;nan
48790;BME280;41718;51.980;5.734;2024-03-02T12:07:27;99988.44;;;12.18;nan
48790;BME280;41718;51.980;5.734;2024-03-02T12:12:28;99990.88;;;12.29;nan
48790;BME280;41718;51.980;5.734;2024-03-02T12:17:31;99979.47;;;12.11;nan
48790;BME280;41718;51.980;5.734;2024-03-02T12:22:35;99982.31;;;12.35;nan
48790;BME280;41718;51.980;5.734;2024-03-02T12:27:39;99970.31;;;12.05;nan
48790;BME280;41718;51.980;5.734;2024-03-02T12:32:42;99972.56;;;12.18;nan
48790;BME280;41718;51.980;5.734;2024-03-02T12:37:52;99966.38;;;12.09;nan
48790;BME280;41718;51.980;5.734;2024-03-02T12:42:54;99951.41;;;12.35;nan
48790;BME280;41718;51.980;5.734;2024-03-02T12:47:56;99958.88;;;12.40;nan
48790;BME280;41718;51.980;5.734;2024-03-02T12:52:58;99958.06;;;12.22;nan
48790;BME280;41718;51.980;5.734;2024-03-02T12:58:00;99952.41;;;11.99;nan
48790;BME280;41718;51.980;5.734;2024-03-02T13:03:04;99942.53;;;12.19;nan
48790;BME280;41718;51.980;5.734;2024-03-02T13:08:09;99943.56;;;12.44;nan
48790;BME280;41718;51.980;5.734;2024-03-02T13:13:14;99933.44;;;12.39;nan
48790;BME280;41718;51.980;5.734;2024-03-02T13:18:19;99933.66;;;12.46;nan
48790;BME280;41718;51.980;5.734;2024-03-02T13:23:21;99926.25;;;12.49;nan
48790;BME280;41718;51.980;5.734;2024-03-02T13:28:29;99919.72;;;12.61;nan
48790;BME280;41718;51.980;5.734;2024-03-02T13:33:31;99915.88;;;12.81;nan
48790;BME280;41718;51.980;5.734;2024-03-02T13:38:36;99904.72;;;13.03;nan
48790;BME280;41718;51.980;5.734;2024-03-02T13:43:38;99891.22;;;13.06;nan
48790;BME280;41718;51.980;5.734;2024-03-02T13:48:50;99899.00;;;13.08;nan
48790;BME280;41718;51.980;5.734;2024-03-02T13:53:56;99903.47;;;13.07;nan
48790;BME280;41718;51.980;5.734;2024-03-02T13:58:59;99894.34;;;12.76;nan
48790;BME280;41718;51.980;5.734;2024-03-02T14:04:01;99879.34;;;12.59;nan
48790;BME280;41718;51.980;5.734;2024-03-02T14:09:07;99888.13;;;12.93;nan
48790;BME280;41718;51.980;5.734;2024-03-02T14:14:12;99882.84;;;12.93;nan
48790;BME280;41718;51.980;5.734;2024-03-02T14:19:16;99875.19;;;12.82;nan
48790;BME280;41718;51.980;5.734;2024-03-02T14:24:28;99863.56;;;12.75;nan
48790;BME280;41718;51.980;5.734;2024-03-02T14:29:42;99862.69;;;12.67;nan
48790;BME280;41718;51.980;5.734;2024-03-02T14:34:47;99857.81;;;12.54;nan
48790;BME280;41718;51.980;5.734;2024-03-02T14:39:55;99859.72;;;12.44;nan
48790;BME280;41718;51.980;5.734;2024-03-02T14:44:59;99840.19;;;12.63;nan
48790;BME280;41718;51.980;5.734;2024-03-02T14:50:10;99838.38;;;12.63;nan
48790;BME280;41718;51.980;5.734;2024-03-02T14:55:24;99844.03;;;12.68;nan
48790;BME280;41718;51.980;5.734;2024-03-02T15:00:29;99847.00;;;12.40;nan
48790;BME280;41718;51.980;5.734;2024-03-02T15:05:33;99848.84;;;12.47;nan
48790;BME280;41718;51.980;5.734;2024-03-02T15:10:41;99844.53;;;12.46;nan
48790;BME280;41718;51.980;5.734;2024-03-02T15:15:46;99840.97;;;12.55;nan
48790;BME280;41718;51.980;5.734;2024-03-02T15:20:48;99847.41;;;12.53;nan
48790;BME280;41718;51.980;5.734;2024-03-02T15:25:50;99841.84;;;12.64;nan
48790;BME280;41718;51.980;5.734;2024-03-02T15:30:53;99829.63;;;12.71;nan
48790;BME280;41718;51.980;5.734;2024-03-02T15:36:00;99836.09;;;12.43;nan
48790;BME280;41718;51.980;5.734;2024-03-02T15:41:04;99835.38;;;12.32;nan
48790;BME280;41718;51.980;5.734;2024-03-02T15:46:06;99847.91;;;12.30;nan
48790;BME280;41718;51.980;5.734;2024-03-02T15:51:09;99841.22;;;12.18;nan
48790;BME280;41718;51.980;5.734;2024-03-02T15:56:11;99842.97;;;12.35;nan
48790;BME280;41718;51.980;5.734;2024-03-02T16:01:13;99834.53;;;12.32;nan
48790;BME280;41718;51.980;5.734;2024-03-02T16:06:15;99833.16;;;12.46;nan
48790;BME280;41718;51.980;5.734;2024-03-02T16:11:17;99836.94;;;12.43;nan
48790;BME280;41718;51.980;5.734;2024-03-02T16:16:19;99826.66;;;12.40;nan
48790;BME280;41718;51.980;5.734;2024-03-02T16:21:22;99816.34;;;12.29;nan
48790;BME280;41718;51.980;5.734;2024-03-02T16:26:27;99824.31;;;12.11;nan
48790;BME280;41718;51.980;5.734;2024-03-02T16:31:29;99809.78;;;12.15;nan
48790;BME280;41718;51.980;5.734;2024-03-02T16:36:31;99803.50;;;11.91;nan
48790;BME280;41718;51.980;5.734;2024-03-02T16:41:36;99815.91;;;11.90;nan
48790;BME280;41718;51.980;5.734;2024-03-02T16:46:42;99810.53;;;11.82;nan
48790;BME280;41718;51.980;5.734;2024-03-02T16:51:44;99819.88;;;11.59;nan
48790;BME280;41718;51.980;5.734;2024-03-02T16:56:48;99816.63;;;11.65;nan
48790;BME280;41718;51.980;5.734;2024-03-02T17:01:50;99822.22;;;11.62;nan
48790;BME280;41718;51.980;5.734;2024-03-02T17:06:52;99813.53;;;11.52;nan
48790;BME280;41718;51.980;5.734;2024-03-02T17:11:54;99813.28;;;11.45;nan
48790;BME280;41718;51.980;5.734;2024-03-02T17:16:56;99819.34;;;11.38;nan
48790;BME280;41718;51.980;5.734;2024-03-02T17:21:58;99830.69;;;11.21;nan
48790;BME280;41718;51.980;5.734;2024-03-02T17:27:00;99826.78;;;11.25;nan
48790;BME280;41718;51.980;5.734;2024-03-02T17:32:03;99838.75;;;11.02;nan
48790;BME280;41718;51.980;5.734;2024-03-02T17:37:05;99852.88;;;11.10;nan
48790;BME280;41718;51.980;5.734;2024-03-02T17:42:07;99857.13;;;10.94;nan
48790;BME280;41718;51.980;5.734;2024-03-02T17:47:09;99858.66;;;10.87;nan
48790;BME280;41718;51.980;5.734;2024-03-02T17:52:11;99858.81;;;10.85;nan
48790;BME280;41718;51.980;5.734;2024-03-02T17:57:13;99852.75;;;10.75;nan
48790;BME280;41718;51.980;5.734;2024-03-02T18:02:15;99857.88;;;10.77;nan
48790;BME280;41718;51.980;5.734;2024-03-02T18:07:17;99848.97;;;10.78;nan
48790;BME280;41718;51.980;5.734;2024-03-02T18:12:19;99859.34;;;10.89;nan
48790;BME280;41718;51.980;5.734;2024-03-02T18:17:21;99859.88;;;10.92;nan
48790;BME280;41718;51.980;5.734;2024-03-02T18:22:23;99866.50;;;11.06;nan
48790;BME280;41718;51.980;5.734;2024-03-02T18:27:26;99853.97;;;11.08;nan
48790;BME280;41718;51.980;5.734;2024-03-02T18:32:28;99857.16;;;11.11;nan
48790;BME280;41718;51.980;5.734;2024-03-02T18:37:30;99857.47;;;11.08;nan
48790;BME280;41718;51.980;5.734;2024-03-02T18:42:32;99853.91;;;10.90;nan
48790;BME280;41718;51.980;5.734;2024-03-02T18:47:36;99848.72;;;10.98;nan
48790;BME280;41718;51.980;5.734;2024-03-02T18:52:40;99855.63;;;11.09;nan
48790;BME280;41718;51.980;5.734;2024-03-02T18:57:42;99856.31;;;11.11;nan
48790;BME280;41718;51.980;5.734;2024-03-02T19:02:44;99837.81;;;11.20;nan
48790;BME280;41718;51.980;5.734;2024-03-02T19:07:47;99850.09;;;11.02;nan
48790;BME280;41718;51.980;5.734;2024-03-02T19:12:49;99851.00;;;11.20;nan
48790;BME280;41718;51.980;5.734;2024-03-02T19:17:51;99843.47;;;10.98;nan
48790;BME280;41718;51.980;5.734;2024-03-02T19:22:54;99848.28;;;11.12;nan
48790;BME280;41718;51.980;5.734;2024-03-02T19:28:05;99842.31;;;10.73;nan
48790;BME280;41718;51.980;5.734;2024-03-02T19:33:13;99834.66;;;10.80;nan
48790;BME280;41718;51.980;5.734;2024-03-02T19:38:21;99839.00;;;10.71;nan
48790;BME280;41718;51.980;5.734;2024-03-02T19:43:37;99827.75;;;10.69;nan
48790;BME280;41718;51.980;5.734;2024-03-02T19:48:43;99825.47;;;10.57;nan
48790;BME280;41718;51.980;5.734;2024-03-02T19:53:46;99827.38;;;10.64;nan
48790;BME280;41718;51.980;5.734;2024-03-02T19:58:53;99819.38;;;10.56;nan
48790;BME280;41718;51.980;5.734;2024-03-02T20:03:59;99810.94;;;10.43;nan
48790;BME280;41718;51.980;5.734;2024-03-02T20:09:10;99805.28;;;10.65;nan
48790;BME280;41718;51.980;5.734;2024-03-02T20:14:38;99807.03;;;10.57;nan
48790;BME280;41718;51.980;5.734;2024-03-02T20:19:53;99805.38;;;10.46;nan
48790;BME280;41718;51.980;5.734;2024-03-02T20:25:14;99787.41;;;10.32;nan
48790;BME280;41718;51.980;5.734;2024-03-02T20:30:24;99798.22;;;10.29;nan
48790;BME280;41718;51.980;5.734;2024-03-02T20:35:33;99788.47;;;10.39;nan
48790;BME280;41718;51.980;5.734;2024-03-02T20:40:37;99799.91;;;10.30;nan
48790;BME280;41718;51.980;5.734;2024-03-02T20:45:41;99804.88;;;10.33;nan
48790;BME280;41718;51.980;5.734;2024-03-02T20:50:52;99801.66;;;10.39;nan
48790;BME280;41718;51.980;5.734;2024-03-02T20:56:04;99812.91;;;10.32;nan
48790;BME280;41718;51.980;5.734;2024-03-02T21:01:18;99814.97;;;10.38;nan
48790;BME280;41718;51.980;5.734;2024-03-02T21:06:29;99826.81;;;10.15;nan
48790;BME280;41718;51.980;5.734;2024-03-02T21:11:37;99830.00;;;10.09;nan
48790;BME280;41718;51.980;5.734;2024-03-02T21:16:55;99834.03;;;10.13;nan
48790;BME280;41718;51.980;5.734;2024-03-02T21:22:05;99835.38;;;10.26;nan
48790;BME280;41718;51.980;5.734;2024-03-02T21:27:26;99835.16;;;10.20;nan
48790;BME280;41718;51.980;5.734;2024-03-02T21:32:56;99849.91;;;10.49;nan
48790;BME280;41718;51.980;5.734;2024-03-02T21:38:12;99839.66;;;10.46;nan
48790;BME280;41718;51.980;5.734;2024-03-02T21:43:25;99850.81;;;10.67;nan
48790;BME280;41718;51.980;5.734;2024-03-02T21:48:59;99848.38;;;10.56;nan
48790;BME280;41718;51.980;5.734;2024-03-02T21:54:09;99832.34;;;10.31;nan
48790;BME280;41718;51.980;5.734;2024-03-02T21:59:12;99842.59;;;10.34;nan
48790;BME280;41718;51.980;5.734;2024-03-02T22:04:21;99836.38;;;10.25;nan
48790;BME280;41718;51.980;5.734;2024-03-02T22:09:27;99836.75;;;10.40;nan
48790;BME280;41718;51.980;5.734;2024-03-02T22:14:37;99830.00;;;10.09;nan
48790;BME280;41718;51.980;5.734;2024-03-02T22:19:46;99841.09;;;10.22;nan
48790;BME280;41718;51.980;5.734;2024-03-02T22:30:28;99838.81;;;10.46;nan
48790;BME280;41718;51.980;5.734;2024-03-02T22:35:31;99834.84;;;10.32;nan
48790;BME280;41718;51.980;5.734;2024-03-02T22:40:39;99827.22;;;10.29;nan
48790;BME280;41718;51.980;5.734;2024-03-02T22:45:58;99828.88;;;10.30;nan
48790;BME280;41718;51.980;5.734;2024-03-02T22:51:31;99822.78;;;10.30;nan
48790;BME280;41718;51.980;5.734;2024-03-02T22:56:36;99816.19;;;10.43;nan
48790;BME280;41718;51.980;5.734;2024-03-02T23:01:44;99810.28;;;10.32;nan
48790;BME280;41718;51.980;5.734;2024-03-02T23:06:47;99813.47;;;10.35;nan
48790;BME280;41718;51.980;5.734;2024-03-02T23:12:01;99825.38;;;10.39;nan
48790;BME280;41718;51.980;5.734;2024-03-02T23:17:05;99812.09;;;10.31;nan
48790;BME280;41718;51.980;5.734;2024-03-02T23:22:10;99825.28;;;10.12;nan
48790;BME280;41718;51.980;5.734;2024-03-02T23:27:18;99824.47;;;10.21;nan
48790;BME280;41718;51.980;5.734;2024-03-02T23:32:21;99825.00;;;10.25;nan
48790;BME280;41718;51.980;5.734;2024-03-02T23:37:23;99827.66;;;9.96;nan
48790;BME280;41718;51.980;5.734;2024-03-02T23:42:27;99819.03;;;10.04;nan
48790;BME280;41718;51.980;5.734;2024-03-02T23:47:29;99824.59;;;10.10;nan
48790;BME280;41718;51.980;5.734;2024-03-02T23:52:31;99825.56;;;10.09;nan
48790;BME280;41718;51.980;5.734;2024-03-02T23:57:33;99823.78;;;10.19;nan
